Terminal Aerodrome Forecast
Issued by NWS Charleston, WV

Home | Current Version | Previous Version | Text Only | Print | Product List | Glossary On
Versions: 1 2 3 4 5 6 7 8 9 10 11 12 13 14 15 16 17 18 19 20 21 22
957
FTUS41 KRLX 281727
TAFBKW
TAF
KBKW 281727Z 2818/2918 25007G15KT P6SM VCSH BKN030
     FM281900 25007G15KT 4SM SHRA BR VCTS BKN030CB
     FM282300 25008KT P6SM VCTS BKN030CB
     FM290200 VRB03KT 4SM BR SCT020
     FM290800 26006KT 3SM BR BKN010
     FM291400 29006KT 5SM BR BKN020=

USA.gov is the U.S. government's official web portal to all federal, state and local government web resources and services.